Terminal Aerodrome Forecast
Issued by NWS

Home | Current Version | Previous Version | Text Only | Print | Product List | Glossary On
Versions: 1 2 3 4 5 6 7 8 9 10 11 12
916
FTUS46 KSEW 252202 AAA
TAFHQM
TAF AMD
KHQM 252202Z 2522/2618 09012KT 5SM -RA BR OVC050
      TEMPO 2522/2602 3SM -RA BR OVC030
     FM260200 12012KT P6SM -RA OVC030
     FM260800 27012KT P6SM -SHRA BKN020
     FM261700 29012KT P6SM VCSH BKN030=

USA.gov is the U.S. government's official web portal to all federal, state and local government web resources and services.